Time;durP1;ratioP1;P1;durP2;ratioP2;P2;SDS_P1;SDS_P2;PMS_P1;PMS_P2;Temp;Humidity;BMP_temperature;BMP_pressure;BME280_temperature;BME280_humidity;BME280_pressure;Samples;Min_cycle;Max_cycle;Signal;HPM_P1;HPM_P2
2021/09/23 00:00:58;;;;;;;8.47;5.33;;;;;;;14.01;56.78;98773.31;8453131;28;20199;-66
2021/09/23 00:05:01;;;;;;;9.87;5.73;;;;;;;13.97;57.12;98769.19;8454207;28;20228;-65
2021/09/23 00:09:05;;;;;;;8.33;5.63;;;;;;;13.97;56.94;98782.19;8454191;28;20205;-65
2021/09/23 00:13:10;;;;;;;7.03;5.23;;;;;;;13.93;57.00;98773.69;8454125;28;20269;-66
2021/09/23 00:17:13;;;;;;;6.93;5.30;;;;;;;13.92;56.83;98774.59;8454197;28;20271;-65
2021/09/23 00:21:16;;;;;;;10.10;5.63;;;;;;;13.86;56.83;98773.13;8454052;28;20588;-65
2021/09/23 00:25:20;;;;;;;6.93;5.30;;;;;;;13.85;56.20;98771.41;8453756;28;20566;-65
2021/09/23 00:29:24;;;;;;;7.47;5.27;;;;;;;13.86;56.02;98765.31;8453586;28;20234;-65
2021/09/23 00:33:27;;;;;;;8.33;5.40;;;;;;;13.77;56.04;98765.72;8453397;28;20610;-65
2021/09/23 00:37:30;;;;;;;5.63;5.00;;;;;;;13.77;56.02;98757.06;8453463;28;20205;-66
2021/09/23 00:41:33;;;;;;;9.33;5.07;;;;;;;13.78;56.95;98756.97;8453094;28;20263;-65
2021/09/23 00:45:38;;;;;;;10.70;6.30;;;;;;;13.78;57.11;98749.16;8453134;28;20249;-66
2021/09/23 00:49:40;;;;;;;12.23;6.23;;;;;;;13.73;57.57;98739.88;8452898;28;20198;-65
2021/09/23 00:53:44;;;;;;;9.23;5.50;;;;;;;13.74;57.26;98741.59;8452700;28;20208;-65
2021/09/23 00:57:47;;;;;;;7.63;5.40;;;;;;;13.72;57.29;98746.00;8452778;28;20425;-65
2021/09/23 01:01:54;;;;;;;7.37;5.00;;;;;;;13.63;56.87;98731.63;8452757;28;20232;-65
2021/09/23 01:06:00;;;;;;;5.67;4.77;;;;;;;13.68;56.43;98721.88;8452293;28;20230;-65
2021/09/23 01:10:04;;;;;;;6.40;4.83;;;;;;;13.60;57.01;98722.22;8452582;28;20222;-65
2021/09/23 01:14:07;;;;;;;9.20;5.37;;;;;;;13.55;57.16;98725.94;8452150;28;20208;-65
2021/09/23 01:18:11;;;;;;;5.97;5.13;;;;;;;13.56;56.77;98730.25;8452217;28;20251;-66
2021/09/23 01:22:18;;;;;;;7.07;5.50;;;;;;;13.58;57.00;98731.84;8451960;28;20205;-65
2021/09/23 01:26:26;;;;;;;7.47;4.73;;;;;;;13.53;56.85;98719.97;8451842;28;20304;-66
2021/09/23 01:30:29;;;;;;;9.30;5.50;;;;;;;13.45;56.76;98713.34;8451724;28;20204;-65
2021/09/23 01:34:32;;;;;;;7.07;5.20;;;;;;;13.41;56.74;98716.16;8451385;28;20227;-65
2021/09/23 01:38:37;;;;;;;9.13;5.60;;;;;;;13.42;56.88;98723.03;8451484;28;20391;-65
2021/09/23 01:42:42;;;;;;;9.13;5.80;;;;;;;13.40;56.77;98717.91;8451281;28;20267;-65
2021/09/23 01:46:45;;;;;;;10.30;5.93;;;;;;;13.38;57.30;98713.66;8451050;28;20200;-65
2021/09/23 01:50:48;;;;;;;9.77;5.73;;;;;;;13.35;57.09;98700.81;8451035;28;20198;-65
2021/09/23 01:54:52;;;;;;;8.30;5.63;;;;;;;13.40;57.18;98702.31;8450149;28;20246;-66
2021/09/23 01:58:55;;;;;;;7.50;5.33;;;;;;;13.39;57.34;98700.59;8450818;28;20229;-66
2021/09/23 02:02:58;;;;;;;8.23;6.00;;;;;;;13.37;57.35;98693.78;8450366;28;20304;-65
2021/09/23 02:07:01;;;;;;;8.53;5.50;;;;;;;13.12;58.17;98687.03;8450562;28;20198;-65
2021/09/23 02:11:06;;;;;;;10.50;6.70;;;;;;;12.74;59.40;98683.41;8450497;28;20202;-66
2021/09/23 02:15:10;;;;;;;8.70;5.57;;;;;;;12.82;59.12;98679.59;8450625;28;20256;-65
2021/09/23 02:19:13;;;;;;;8.63;5.83;;;;;;;13.04;58.15;98678.69;8450273;28;20204;-65
2021/09/23 02:23:16;;;;;;;6.23;5.63;;;;;;;13.02;58.07;98667.50;8449995;28;20258;-66
2021/09/23 02:27:21;;;;;;;7.37;5.53;;;;;;;13.06;58.49;98659.53;8450206;28;20205;-65
2021/09/23 02:31:24;;;;;;;10.63;6.23;;;;;;;12.93;59.15;98642.75;8449981;28;20198;-66
2021/09/23 02:35:27;;;;;;;9.40;5.57;;;;;;;12.83;59.18;98631.06;8449783;28;20225;-65
2021/09/23 02:39:30;;;;;;;6.73;5.17;;;;;;;12.89;58.87;98636.00;8449694;28;20265;-65
2021/09/23 02:43:34;;;;;;;8.97;5.90;;;;;;;12.36;60.65;98633.91;8449670;28;20244;-66
2021/09/23 02:47:37;;;;;;;7.60;5.67;;;;;;;12.35;60.40;98621.81;8449360;28;20236;-65
2021/09/23 02:51:40;;;;;;;7.70;5.63;;;;;;;12.19;61.15;98609.47;8449470;28;20216;-66
2021/09/23 02:55:43;;;;;;;10.00;5.70;;;;;;;12.60;59.58;98632.03;8449233;28;20265;-65
2021/09/23 02:59:48;;;;;;;11.80;5.13;;;;;;;12.75;59.12;98627.94;8449277;28;20202;-65
2021/09/23 03:03:51;;;;;;;6.43;5.27;;;;;;;12.77;59.10;98620.94;8449251;28;20505;-65
2021/09/23 03:07:55;;;;;;;7.93;5.57;;;;;;;12.64;59.25;98608.47;8451752;28;20198;-65
2021/09/23 03:11:58;;;;;;;9.67;5.73;;;;;;;12.79;58.79;98603.50;8456491;28;20269;-66
2021/09/23 03:16:02;;;;;;;9.03;5.63;;;;;;;12.73;58.60;98599.41;8456092;28;20206;-65
2021/09/23 03:20:06;;;;;;;9.70;5.50;;;;;;;12.60;59.48;98596.50;8455759;28;20205;-65
2021/09/23 03:24:10;;;;;;;7.87;5.30;;;;;;;12.68;58.63;98602.22;8455633;28;20229;-66
2021/09/23 03:28:13;;;;;;;11.83;5.67;;;;;;;12.78;58.42;98596.66;8455583;28;20251;-66
2021/09/23 03:32:18;;;;;;;8.60;5.37;;;;;;;12.44;59.38;98578.13;8455426;28;20198;-65
2021/09/23 03:36:22;;;;;;;8.93;5.53;;;;;;;11.89;62.22;98568.25;8455281;28;20208;-66
2021/09/23 03:40:26;;;;;;;7.50;5.33;;;;;;;12.38;60.10;98564.56;8455143;28;20206;-65
2021/09/23 03:44:30;;;;;;;6.10;5.37;;;;;;;12.55;58.99;98566.47;8454878;28;20236;-66
2021/09/23 03:48:35;;;;;;;9.73;5.77;;;;;;;12.52;59.00;98570.00;8454736;28;20207;-65
2021/09/23 03:52:38;;;;;;;7.63;5.17;;;;;;;12.47;59.32;98565.03;8454653;28;20202;-65
2021/09/23 03:56:41;;;;;;;8.07;5.87;;;;;;;12.55;58.56;98561.25;8454818;28;20258;-65
2021/09/23 04:00:44;;;;;;;13.37;5.67;;;;;;;12.54;58.52;98552.59;8454478;28;20233;-65
2021/09/23 04:04:48;;;;;;;7.47;5.57;;;;;;;12.54;58.53;98557.78;8454408;28;20430;-65
2021/09/23 04:08:51;;;;;;;7.70;4.90;;;;;;;12.56;58.34;98549.94;8454248;28;20199;-65
2021/09/23 04:12:55;;;;;;;7.87;5.77;;;;;;;12.63;58.24;98552.19;8454162;28;20229;-65
2021/09/23 04:17:00;;;;;;;8.33;4.90;;;;;;;12.56;58.31;98555.97;8454026;28;20251;-65
2021/09/23 04:21:05;;;;;;;6.77;5.07;;;;;;;12.60;58.03;98547.13;8453235;28;20269;-65
2021/09/23 04:25:08;;;;;;;8.63;5.43;;;;;;;12.52;58.20;98542.25;8453723;28;20299;-66
2021/09/23 04:29:11;;;;;;;6.70;5.23;;;;;;;12.49;58.20;98542.41;8453708;28;20427;-65
2021/09/23 04:33:17;;;;;;;7.87;5.53;;;;;;;12.36;58.30;98550.81;8453537;28;20218;-65
2021/09/23 04:37:21;;;;;;;7.77;5.80;;;;;;;12.43;58.26;98547.00;8453493;28;20426;-66
2021/09/23 04:41:24;;;;;;;9.30;5.93;;;;;;;12.40;58.30;98554.97;8453474;28;20202;-65
2021/09/23 04:45:27;;;;;;;7.13;5.33;;;;;;;12.46;58.03;98552.94;8453133;28;20226;-66
2021/09/23 04:49:30;;;;;;;8.90;5.57;;;;;;;12.48;57.85;98539.88;8452799;28;20268;-64
2021/09/23 04:53:34;;;;;;;9.63;5.50;;;;;;;12.44;57.60;98535.72;8451874;28;20195;-64
2021/09/23 04:57:37;;;;;;;20.87;6.67;;;;;;;12.39;58.06;98525.53;8452173;28;20222;-64
2021/09/23 05:01:41;;;;;;;9.23;5.80;;;;;;;12.32;58.40;98516.31;8451521;28;20509;-64
2021/09/23 05:05:44;;;;;;;11.70;6.20;;;;;;;12.27;58.30;98511.31;8451527;28;20222;-64
2021/09/23 05:09:48;;;;;;;10.13;5.73;;;;;;;12.04;58.79;98511.44;8452132;28;20429;-64
2021/09/23 05:13:51;;;;;;;8.83;6.10;;;;;;;12.28;58.52;98515.59;8452074;28;20198;-64
2021/09/23 05:17:54;;;;;;;9.27;5.97;;;;;;;12.18;58.71;98514.28;8452102;28;20283;-64
2021/09/23 05:21:57;;;;;;;12.20;6.70;;;;;;;12.37;58.40;98526.50;8451964;28;20426;-64
2021/09/23 05:26:05;;;;;;;11.07;6.90;;;;;;;12.70;57.41;98519.84;8451310;28;20226;-64
2021/09/23 05:30:12;;;;;;;13.07;8.77;;;;;;;12.77;56.92;98516.97;8447226;28;20190;-64
2021/09/23 05:34:17;;;;;;;16.40;8.50;;;;;;;12.94;56.69;98509.25;8450636;28;20219;-64
2021/09/23 05:38:23;;;;;;;13.20;7.93;;;;;;;12.95;56.94;98499.72;8450511;28;20198;-64
2021/09/23 05:42:27;;;;;;;13.07;7.37;;;;;;;12.95;57.00;98497.13;8450310;28;20202;-64
2021/09/23 05:46:30;;;;;;;17.67;6.93;;;;;;;13.22;56.31;98513.22;8449881;28;21225;-64
2021/09/23 05:50:33;;;;;;;9.97;6.40;;;;;;;13.35;56.16;98498.75;8449991;28;20226;-64
2021/09/23 05:54:39;;;;;;;8.27;5.50;;;;;;;13.33;56.32;98502.31;8447092;28;20304;-64
2021/09/23 05:58:43;;;;;;;9.03;5.47;;;;;;;13.62;55.51;98506.97;8449747;28;20271;-64
2021/09/23 06:02:46;;;;;;;8.63;5.70;;;;;;;13.58;55.56;98509.81;8449947;28;20194;-64
2021/09/23 06:06:50;;;;;;;8.40;5.80;;;;;;;13.72;55.69;98504.78;8449700;28;20406;-64
2021/09/23 06:10:53;;;;;;;9.27;6.50;;;;;;;13.28;56.49;98508.53;8449697;28;20477;-64
2021/09/23 06:14:57;;;;;;;7.17;5.63;;;;;;;13.46;56.39;98506.88;8449358;28;20201;-64
2021/09/23 06:19:00;;;;;;;14.10;6.00;;;;;;;13.42;56.88;98505.34;8449479;28;20263;-64
2021/09/23 06:23:03;;;;;;;11.53;6.00;;;;;;;13.85;55.55;98497.22;8449347;28;20190;-64
2021/09/23 06:27:07;;;;;;;9.83;6.40;;;;;;;13.64;56.43;98492.13;8449765;28;20232;-64
2021/09/23 06:31:11;;;;;;;17.47;6.60;;;;;;;13.81;56.06;98490.47;8449784;28;20213;-64
2021/09/23 06:35:14;;;;;;;9.67;6.40;;;;;;;13.76;55.86;98488.09;8448806;28;20222;-64
2021/09/23 06:39:21;;;;;;;10.20;5.97;;;;;;;13.99;55.68;98500.00;8449726;28;20304;-64
2021/09/23 06:43:24;;;;;;;11.37;6.23;;;;;;;14.22;55.13;98483.22;8449709;28;20199;-65
2021/09/23 06:47:28;;;;;;;11.20;6.67;;;;;;;14.17;55.17;98486.97;8449338;28;20226;-65
2021/09/23 06:51:32;;;;;;;9.20;5.93;;;;;;;14.34;55.13;98481.72;8449515;28;20222;-64
2021/09/23 06:55:42;;;;;;;10.97;6.20;;;;;;;14.57;54.82;98477.13;8449490;28;20293;-64
2021/09/23 06:59:44;;;;;;;13.20;6.13;;;;;;;14.86;54.26;98472.97;8449285;28;20230;-64
2021/09/23 07:03:49;;;;;;;13.27;6.17;;;;;;;15.19;54.27;98464.22;8449296;28;20221;-64
2021/09/23 07:07:52;;;;;;;10.03;6.40;;;;;;;15.02;54.00;98475.56;8449153;28;20222;-65
2021/09/23 07:11:56;;;;;;;10.70;6.30;;;;;;;15.10;54.47;98486.44;8449156;28;20267;-64
2021/09/23 07:16:00;;;;;;;14.43;6.83;;;;;;;15.07;54.40;98478.78;8448914;28;20206;-65
2021/09/23 07:20:06;;;;;;;11.00;6.60;;;;;;;15.39;54.06;98476.16;8449037;28;20204;-64
2021/09/23 07:24:09;;;;;;;14.33;6.80;;;;;;;15.63;53.81;98480.00;8448976;28;20428;-64
2021/09/23 07:28:15;;;;;;;11.10;6.37;;;;;;;16.08;53.11;98481.84;8448887;28;20230;-65
2021/09/23 07:32:18;;;;;;;9.73;6.50;;;;;;;16.34;52.97;98473.31;8448709;28;20198;-62
2021/09/23 07:36:23;;;;;;;12.67;7.07;;;;;;;16.35;53.30;98467.13;8448801;28;20217;-62
2021/09/23 07:40:26;;;;;;;11.73;5.93;;;;;;;17.08;51.92;98462.78;8448801;28;20202;-63
2021/09/23 07:44:29;;;;;;;11.23;7.17;;;;;;;16.77;51.69;98464.63;8448633;28;20567;-62
2021/09/23 07:48:32;;;;;;;13.97;7.60;;;;;;;16.27;52.97;98476.38;8448401;28;20303;-65
2021/09/23 07:52:36;;;;;;;10.23;6.57;;;;;;;17.22;50.46;98467.13;8448465;28;20205;-63
2021/09/23 07:56:43;;;;;;;11.37;6.80;;;;;;;17.66;49.95;98455.56;8453324;28;20242;-66
2021/09/23 08:00:46;;;;;;;15.00;6.70;;;;;;;17.92;49.00;98453.88;8454546;28;20202;-66
2021/09/23 08:04:49;;;;;;;9.67;6.07;;;;;;;18.24;48.65;98453.47;8454491;28;20493;-67
2021/09/23 08:08:53;;;;;;;11.33;6.87;;;;;;;18.40;47.43;98456.72;8454283;28;20366;-67
2021/09/23 08:12:56;;;;;;;8.90;6.23;;;;;;;18.88;46.84;98448.19;8453906;28;20513;-67
2021/09/23 08:16:59;;;;;;;10.03;6.13;;;;;;;19.07;46.72;98440.69;8454099;28;20265;-67
2021/09/23 08:21:05;;;;;;;8.67;5.73;;;;;;;19.34;45.61;98435.25;8453931;28;20210;-66
2021/09/23 08:25:11;;;;;;;13.93;6.37;;;;;;;19.73;45.64;98428.03;8453665;28;20287;-67
2021/09/23 08:29:14;;;;;;;10.57;6.23;;;;;;;20.06;44.24;98425.59;8453500;28;20199;-67
2021/09/23 08:33:17;;;;;;;8.60;6.13;;;;;;;20.18;43.16;98429.06;8453524;28;20260;-67
2021/09/23 08:37:20;;;;;;;17.63;6.00;;;;;;;20.40;43.06;98423.84;8453289;28;20240;-67
2021/09/23 08:41:25;;;;;;;11.80;5.43;;;;;;;20.74;41.45;98423.03;8452862;28;20199;-67
2021/09/23 08:45:28;;;;;;;8.80;5.23;;;;;;;21.24;41.01;98423.41;8453218;28;20296;-67
2021/09/23 08:49:31;;;;;;;9.23;4.67;;;;;;;21.64;39.88;98420.19;8453125;28;20199;-67
2021/09/23 08:53:34;;;;;;;11.60;5.33;;;;;;;21.69;40.02;98418.00;8452839;28;20198;-67
2021/09/23 08:57:39;;;;;;;11.37;5.63;;;;;;;21.96;39.11;98414.03;8452756;28;20564;-68
2021/09/23 09:01:47;;;;;;;9.70;5.10;;;;;;;22.20;38.43;98409.31;8452504;28;20201;-67
2021/09/23 09:05:53;;;;;;;10.80;6.03;;;;;;;22.27;38.03;98404.38;8452428;28;20297;-67
2021/09/23 09:10:01;;;;;;;13.83;5.77;;;;;;;22.61;38.19;98398.81;8452372;28;20202;-67
2021/09/23 09:14:05;;;;;;;8.37;5.07;;;;;;;22.90;37.33;98383.06;8452217;28;20204;-66
2021/09/23 09:18:16;;;;;;;12.30;5.40;;;;;;;23.05;37.25;98369.50;8452072;28;20486;-68
2021/09/23 09:22:21;;;;;;;11.27;5.23;;;;;;;23.21;37.03;98383.00;8451721;28;20201;-67
2021/09/23 09:26:33;;;;;;;11.90;5.30;;;;;;;23.43;36.51;98374.78;8451640;28;20242;-66
2021/09/23 09:30:38;;;;;;;12.93;5.20;;;;;;;23.41;36.72;98373.28;8451574;28;20202;-66
2021/09/23 09:34:55;;;;;;;10.27;4.87;;;;;;;23.38;36.53;98361.19;8451336;28;20246;-63
2021/09/23 09:39:04;;;;;;;9.40;4.20;;;;;;;23.87;35.41;98352.38;8451440;28;20490;-63
2021/09/23 09:43:09;;;;;;;8.07;4.00;;;;;;;23.85;35.54;98346.41;8451172;28;20210;-63
2021/09/23 09:47:13;;;;;;;12.03;3.87;;;;;;;24.37;35.61;98338.84;8450766;28;20222;-63
2021/09/23 09:51:16;;;;;;;7.67;3.90;;;;;;;24.24;35.12;98335.66;8451119;28;20387;-63
2021/09/23 09:55:21;;;;;;;8.57;4.57;;;;;;;24.17;34.98;98336.25;8449823;28;20222;-62
2021/09/23 09:59:24;;;;;;;7.83;3.57;;;;;;;24.58;34.66;98334.16;8449911;28;20219;-63
2021/09/23 10:03:30;;;;;;;8.20;3.87;;;;;;;24.49;34.32;98335.00;8449659;28;20212;-63
2021/09/23 10:07:35;;;;;;;8.60;4.10;;;;;;;24.69;35.28;98325.16;8449827;28;20553;-64
2021/09/23 10:11:41;;;;;;;12.10;4.20;;;;;;;24.77;35.45;98321.78;8450359;28;20211;-62
2021/09/23 10:15:44;;;;;;;8.90;4.00;;;;;;;24.71;34.72;98319.72;8449642;28;20206;-62
2021/09/23 10:19:49;;;;;;;6.87;3.67;;;;;;;24.94;34.79;98320.13;8450201;28;20427;-62
2021/09/23 10:23:53;;;;;;;8.80;3.43;;;;;;;25.10;35.12;98314.97;8449643;28;20199;-63
2021/09/23 10:27:59;;;;;;;6.68;3.58;;;;;;;25.25;33.85;98314.50;8447655;28;20505;-63
2021/09/23 10:32:03;;;;;;;7.10;3.47;;;;;;;25.15;34.32;98309.22;8450041;28;20250;-62
2021/09/23 10:36:09;;;;;;;8.77;3.70;;;;;;;25.27;33.64;98302.75;8449626;28;20530;-62
2021/09/23 10:40:14;;;;;;;6.87;3.53;;;;;;;25.43;33.52;98309.97;8449639;28;20204;-63
2021/09/23 10:44:19;;;;;;;6.97;2.90;;;;;;;25.55;33.74;98306.09;8449629;28;20260;-62
2021/09/23 10:48:22;;;;;;;4.40;2.70;;;;;;;25.71;33.31;98292.13;8449367;28;20304;-62
2021/09/23 10:52:30;;;;;;;6.20;3.00;;;;;;;25.56;32.81;98293.66;8449283;28;20199;-62
2021/09/23 10:56:36;;;;;;;6.10;2.97;;;;;;;25.86;32.26;98276.44;8449091;28;20239;-62
2021/09/23 11:00:39;;;;;;;5.47;3.43;;;;;;;25.69;31.83;98274.69;8449209;28;20362;-62
2021/09/23 11:04:42;;;;;;;7.00;3.43;;;;;;;25.76;32.50;98273.09;8449121;28;20470;-62
2021/09/23 11:08:48;;;;;;;7.93;3.43;;;;;;;25.83;32.31;98257.38;8449077;28;20468;-62
2021/09/23 11:12:55;;;;;;;11.40;3.70;;;;;;;25.17;32.89;98254.28;8449136;28;20212;-62
2021/09/23 11:16:59;;;;;;;6.57;3.10;;;;;;;25.62;32.25;98240.00;8448918;28;20435;-62
2021/09/23 11:21:03;;;;;;;9.27;3.37;;;;;;;24.71;33.50;98240.28;8449200;28;20520;-62
2021/09/23 11:25:10;;;;;;;6.40;3.40;;;;;;;25.17;33.42;98223.28;8449453;28;20199;-62
2021/09/23 11:29:16;;;;;;;6.73;2.87;;;;;;;25.52;32.99;98213.59;8451629;28;20549;-62
2021/09/23 11:33:22;;;;;;;9.37;3.73;;;;;;;25.20;33.26;98211.53;8455636;28;20532;-62
2021/09/23 11:37:29;;;;;;;6.53;3.10;;;;;;;25.60;32.92;98206.69;8454729;28;20391;-62
2021/09/23 11:41:33;;;;;;;4.33;2.90;;;;;;;25.59;32.59;98205.00;8455398;28;20236;-62
2021/09/23 11:45:39;;;;;;;5.50;3.20;;;;;;;25.49;32.82;98199.81;8454971;28;20212;-62
2021/09/23 11:49:42;;;;;;;6.37;3.30;;;;;;;25.53;33.05;98187.91;8455116;28;20531;-62
2021/09/23 11:53:51;;;;;;;6.90;2.77;;;;;;;25.68;32.55;98185.50;8454718;28;20204;-62
2021/09/23 11:58:04;;;;;;;8.38;3.55;;;;;;;25.68;31.28;98185.50;8453337;28;20501;-68
2021/09/23 12:02:08;;;;;;;3.13;2.47;;;;;;;25.78;31.89;98178.28;8454569;28;20495;-67
2021/09/23 12:06:12;;;;;;;8.13;3.50;;;;;;;25.54;31.38;98176.34;8454418;28;20201;-69
2021/09/23 12:10:15;;;;;;;5.63;2.80;;;;;;;25.78;31.65;98174.78;8454284;28;20240;-68
2021/09/23 12:14:19;;;;;;;4.30;2.80;;;;;;;25.94;31.40;98157.13;8454144;28;20506;-69
2021/09/23 12:18:23;;;;;;;7.10;2.97;;;;;;;25.46;31.38;98150.63;8453997;28;20215;-68
2021/09/23 12:22:31;;;;;;;6.23;3.07;;;;;;;25.68;31.31;98145.72;8453986;28;20488;-70
2021/09/23 12:26:38;;;;;;;5.33;2.90;;;;;;;25.68;31.57;98145.72;8453621;28;20268;-69
2021/09/23 12:30:42;;;;;;;5.17;2.73;;;;;;;26.02;30.73;98143.06;8453740;28;20205;-69
2021/09/23 12:34:47;;;;;;;5.03;2.60;;;;;;;26.00;30.45;98123.81;8453127;28;20221;-69
2021/09/23 12:39:04;;;;;;;6.47;3.50;;;;;;;25.65;30.20;98128.31;8452882;28;20216;-70
2021/09/23 12:43:15;;;;;;;5.00;2.77;;;;;;;25.96;31.10;98121.66;8453624;28;20386;-69
2021/09/23 12:47:19;;;;;;;4.47;3.10;;;;;;;25.70;30.77;98123.38;8453369;28;20270;-69
2021/09/23 12:51:35;;;;;;;5.70;2.80;;;;;;;26.00;29.83;98121.16;8453099;28;20201;-69
2021/09/23 12:55:40;;;;;;;4.27;3.10;;;;;;;26.15;29.75;98124.03;8452833;28;20246;-69
2021/09/23 12:59:43;;;;;;;5.20;3.10;;;;;;;25.90;28.92;98118.63;8452656;28;20212;-71
2021/09/23 13:03:47;;;;;;;3.00;2.73;;;;;;;26.03;29.67;98104.94;8451844;28;20200;-70
2021/09/23 13:07:51;;;;;;;7.77;3.13;;;;;;;26.02;30.47;98089.16;8451579;28;20494;-70
2021/09/23 13:12:13;;;;;;;4.43;2.97;;;;;;;25.99;30.58;98086.81;8451385;28;20202;-69
2021/09/23 13:16:31;;;;;;;7.13;3.10;;;;;;;25.64;29.37;98086.88;8450302;28;20219;-69
2021/09/23 13:20:38;;;;;;;5.57;3.20;;;;;;;25.93;29.36;98086.50;8451302;28;20210;-68
2021/09/23 13:24:41;;;;;;;9.13;3.30;;;;;;;26.20;29.49;98084.56;8451089;28;20261;-68
2021/09/23 13:28:47;;;;;;;6.43;2.93;;;;;;;25.78;29.50;98081.94;8450809;28;20225;-68
2021/09/23 13:32:51;;;;;;;4.90;3.03;;;;;;;25.58;29.58;98074.28;8448626;28;20223;-68
2021/09/23 13:36:55;;;;;;;5.97;3.40;;;;;;;25.66;29.42;98066.34;8450696;28;20468;-62
2021/09/23 13:41:02;;;;;;;6.60;3.40;;;;;;;26.02;29.64;98071.41;8450492;28;20228;-62
2021/09/23 13:45:08;;;;;;;5.53;2.80;;;;;;;25.70;28.68;98066.84;8447683;28;20212;-62
2021/09/23 13:49:11;;;;;;;4.70;2.77;;;;;;;25.52;29.00;98062.47;8448445;28;20248;-62
2021/09/23 13:53:17;;;;;;;5.13;2.70;;;;;;;25.54;28.67;98054.38;8449944;28;20246;-63
2021/09/23 13:57:20;;;;;;;3.00;2.70;;;;;;;25.59;29.50;98043.28;8450883;28;20364;-63
2021/09/23 14:01:24;;;;;;;4.50;2.80;;;;;;;25.73;30.15;98037.34;8450923;28;20201;-63
2021/09/23 14:05:27;;;;;;;3.90;2.70;;;;;;;25.68;29.37;98043.16;8450793;28;20487;-63
2021/09/23 14:09:37;;;;;;;4.80;2.70;;;;;;;25.48;29.48;98029.34;8450685;28;20546;-63
2021/09/23 14:13:40;;;;;;;5.03;2.90;;;;;;;25.74;29.13;98029.25;8450496;28;20261;-63
2021/09/23 14:17:43;;;;;;;7.47;2.63;;;;;;;26.03;29.67;98016.56;8450403;28;20204;-63
2021/09/23 14:22:05;;;;;;;6.20;2.67;;;;;;;25.72;30.06;98009.16;8450247;28;20388;-63
2021/09/23 14:26:10;;;;;;;4.10;2.70;;;;;;;25.80;30.20;98006.53;8449942;28;20566;-63
2021/09/23 14:30:13;;;;;;;7.37;2.83;;;;;;;25.62;29.89;98003.19;8447195;28;20225;-63
2021/09/23 14:34:17;;;;;;;4.17;2.43;;;;;;;25.50;30.18;97995.53;8449992;28;20227;-64
2021/09/23 14:38:21;;;;;;;3.70;2.50;;;;;;;25.46;29.87;97988.91;8449762;28;20208;-63
2021/09/23 14:42:25;;;;;;;5.33;2.80;;;;;;;25.32;29.81;97986.88;8449734;28;20205;-63
2021/09/23 14:46:28;;;;;;;7.20;2.77;;;;;;;24.96;29.78;97977.28;8449512;28;20201;-63
2021/09/23 14:50:31;;;;;;;17.83;3.23;;;;;;;25.09;29.65;97976.00;8448371;28;20559;-63
2021/09/23 14:54:34;;;;;;;5.10;2.60;;;;;;;24.74;29.52;97976.00;8448385;28;20490;-63
2021/09/23 14:58:38;;;;;;;5.87;2.80;;;;;;;24.57;29.57;97971.63;8449147;28;20200;-63
2021/09/23 15:02:42;;;;;;;3.80;2.30;;;;;;;24.44;30.31;97973.81;8451196;28;20495;-63
2021/09/23 15:06:46;;;;;;;4.17;2.47;;;;;;;24.33;30.13;97970.47;8459207;28;20213;-63
2021/09/23 15:10:49;;;;;;;11.83;2.50;;;;;;;24.26;31.06;97980.00;8458361;28;20233;-64
2021/09/23 15:14:53;;;;;;;3.37;2.57;;;;;;;24.08;30.69;97969.44;8458714;28;20418;-64
2021/09/23 15:18:56;;;;;;;5.33;2.53;;;;;;;24.29;30.73;97960.31;8458554;28;20594;-63
2021/09/23 15:22:59;;;;;;;8.90;2.70;;;;;;;24.04;31.21;97951.38;8459804;28;20195;-63
2021/09/23 15:27:02;;;;;;;3.60;2.13;;;;;;;23.87;31.41;97939.84;8459811;28;20493;-64
2021/09/23 15:31:08;;;;;;;8.37;2.40;;;;;;;23.66;31.91;97927.72;8459334;28;20245;-66
2021/09/23 15:35:12;;;;;;;4.97;2.80;;;;;;;23.53;32.12;97927.28;8459625;28;20266;-65
2021/09/23 15:39:14;;;;;;;3.30;2.30;;;;;;;23.47;32.41;97915.50;8460065;28;20274;-66
2021/09/23 15:43:17;;;;;;;5.10;2.50;;;;;;;23.27;33.19;97925.41;8459434;28;20202;-65
2021/09/23 15:47:25;;;;;;;8.23;2.67;;;;;;;23.20;33.01;97926.97;8460087;28;20374;-65
2021/09/23 15:51:28;;;;;;;5.10;2.53;;;;;;;23.08;33.26;97936.09;8459927;28;20409;-66
2021/09/23 15:55:33;;;;;;;8.57;2.70;;;;;;;22.87;32.99;97933.66;8459908;28;20221;-65
2021/09/23 15:59:38;;;;;;;5.50;2.30;;;;;;;22.63;33.69;97914.72;8459702;28;20284;-66
2021/09/23 16:03:42;;;;;;;5.10;2.30;;;;;;;22.68;33.64;97914.28;8459578;28;20243;-66
2021/09/23 16:07:45;;;;;;;4.03;2.30;;;;;;;22.52;33.93;97901.69;8459531;28;20210;-66
2021/09/23 16:11:48;;;;;;;8.00;2.90;;;;;;;22.41;35.05;97900.09;8459308;28;20201;-65
2021/09/23 16:15:52;;;;;;;7.10;2.53;;;;;;;22.39;34.70;97888.84;8454888;28;20220;-66
2021/09/23 16:19:56;;;;;;;8.40;2.40;;;;;;;22.32;35.41;97885.13;8454100;28;20390;-66
2021/09/23 16:23:59;;;;;;;3.13;2.70;;;;;;;22.18;35.86;97880.28;8453988;28;20274;-66
2021/09/23 16:28:02;;;;;;;5.07;2.40;;;;;;;22.15;36.00;97886.66;8453553;28;20392;-66
2021/09/23 16:32:06;;;;;;;5.80;2.67;;;;;;;21.98;36.36;97890.03;8453672;28;20252;-66
2021/09/23 16:36:10;;;;;;;3.97;2.60;;;;;;;21.93;36.48;97890.47;8453480;28;20278;-65
2021/09/23 16:40:14;;;;;;;7.47;2.90;;;;;;;21.83;36.58;97890.47;8453473;28;20224;-66
2021/09/23 16:44:21;;;;;;;8.27;2.83;;;;;;;21.72;36.70;97893.25;8453491;28;20230;-65
2021/09/23 16:48:25;;;;;;;7.27;2.80;;;;;;;21.71;37.83;97894.25;8453178;28;20415;-65
2021/09/23 16:52:48;;;;;;;6.53;3.13;;;;;;;21.62;37.81;97887.19;8453533;28;20486;-65
2021/09/23 16:56:52;;;;;;;3.33;2.60;;;;;;;21.52;37.75;97883.72;8453108;28;20276;-65
2021/09/23 17:00:55;;;;;;;3.90;2.70;;;;;;;21.50;38.83;97898.84;8452899;28;20547;-65
2021/09/23 17:04:59;;;;;;;4.50;3.20;;;;;;;21.39;38.70;97897.94;8452452;28;20269;-65
2021/09/23 17:09:07;;;;;;;7.17;2.47;;;;;;;21.34;38.31;97900.16;8452274;28;20291;-65
2021/09/23 17:13:10;;;;;;;7.37;2.97;;;;;;;21.28;38.61;97900.72;8448524;28;20193;-65
2021/09/23 17:17:13;;;;;;;7.93;2.87;;;;;;;21.17;38.87;97908.75;8451367;28;20310;-65
2021/09/23 17:21:17;;;;;;;4.33;2.80;;;;;;;21.14;39.30;97901.94;8448861;28;20271;-65
2021/09/23 17:25:22;;;;;;;7.63;3.00;;;;;;;21.09;39.60;97906.78;8449656;28;20226;-65
2021/09/23 17:29:25;;;;;;;13.40;3.40;;;;;;;20.98;39.78;97902.50;8451260;28;20272;-65
2021/09/23 17:33:28;;;;;;;5.60;3.10;;;;;;;20.93;40.14;97902.06;8451463;28;20277;-65
2021/09/23 17:37:31;;;;;;;8.10;3.03;;;;;;;20.85;40.75;97905.34;8451461;28;20201;-66
2021/09/23 17:41:36;;;;;;;20.27;3.80;;;;;;;20.82;40.94;97912.69;8450567;28;20355;-66
2021/09/23 17:45:39;;;;;;;8.60;3.50;;;;;;;20.72;41.74;97906.56;8448025;28;20225;-66
2021/09/23 17:49:43;;;;;;;29.97;4.87;;;;;;;20.59;41.53;97901.50;8450382;28;20292;-69
2021/09/23 17:53:47;;;;;;;5.63;3.63;;;;;;;20.52;40.52;97888.03;8449967;28;20193;-70
2021/09/23 17:57:51;;;;;;;8.93;3.03;;;;;;;20.45;39.74;97886.91;8450508;28;20317;-70
2021/09/23 18:01:54;;;;;;;3.63;2.80;;;;;;;20.41;39.72;97888.97;8449655;28;20276;-69
2021/09/23 18:05:57;;;;;;;7.97;2.97;;;;;;;20.38;39.46;97885.78;8449482;28;20195;-71
2021/09/23 18:10:00;;;;;;;7.73;3.03;;;;;;;20.36;39.56;97890.34;8449203;28;20255;-70
2021/09/23 18:14:05;;;;;;;3.63;2.70;;;;;;;20.31;39.71;97890.72;8449446;28;20481;-70
2021/09/23 18:18:08;;;;;;;5.17;3.00;;;;;;;20.25;40.14;97892.06;8449600;28;20192;-70
2021/09/23 18:22:11;;;;;;;7.00;2.90;;;;;;;20.11;40.10;97885.34;8449394;28;20206;-71
2021/09/23 18:26:14;;;;;;;5.63;3.00;;;;;;;20.02;40.62;97891.38;8449121;28;20200;-70
2021/09/23 18:30:18;;;;;;;5.93;2.80;;;;;;;20.07;40.51;97886.59;8449037;28;20226;-70
2021/09/23 18:34:22;;;;;;;4.93;3.20;;;;;;;19.98;40.86;97892.63;8420169;28;20411;-70
2021/09/23 18:38:25;;;;;;;5.00;3.10;;;;;;;19.92;41.20;97898.38;8448955;28;20204;-62
2021/09/23 18:42:28;;;;;;;11.00;3.50;;;;;;;19.89;41.50;97902.09;8448315;28;20231;-66
2021/09/23 18:46:34;;;;;;;5.40;2.90;;;;;;;19.94;41.22;97906.16;8446190;28;20198;-63
2021/09/23 18:50:37;;;;;;;7.30;3.00;;;;;;;19.81;41.86;97919.47;8449522;28;20446;-63
2021/09/23 18:54:40;;;;;;;5.83;3.60;;;;;;;19.73;41.99;97914.84;8449177;28;20240;-64
2021/09/23 18:58:43;;;;;;;4.47;3.50;;;;;;;19.71;42.33;97909.69;8449411;28;20199;-63
2021/09/23 19:02:48;;;;;;;5.83;3.40;;;;;;;19.76;42.22;97903.25;8449191;28;20233;-63
2021/09/23 19:06:52;;;;;;;4.40;3.27;;;;;;;19.72;42.85;97900.03;8449217;28;20199;-63